createdAt,value
2019-04-20T00:02:25.378Z,9.40
2019-04-20T00:06:32.622Z,7.80
2019-04-20T00:10:46.609Z,8.07
2019-04-20T00:14:42.405Z,10.20
2019-04-20T00:18:52.956Z,6.00
2019-04-20T00:23:05.920Z,7.37
2019-04-20T00:27:32.945Z,9.50
2019-04-20T00:31:30.773Z,7.50
2019-04-20T00:35:23.099Z,11.10
2019-04-20T00:39:27.898Z,8.17
2019-04-20T00:43:36.127Z,10.33
2019-04-20T00:47:48.958Z,6.57
2019-04-20T00:52:15.175Z,7.60
2019-04-20T00:55:50.788Z,8.13
2019-04-20T01:00:18.021Z,9.53
2019-04-20T01:04:20.207Z,6.93
2019-04-20T01:08:36.034Z,9.77
2019-04-20T01:12:42.121Z,6.33
2019-04-20T01:16:52.664Z,7.63
2019-04-20T01:20:52.105Z,10.13
2019-04-20T01:25:00.118Z,7.00
2019-04-20T01:29:12.180Z,8.30
2019-04-20T01:33:22.637Z,6.37
2019-04-20T01:37:25.748Z,6.93
2019-04-20T01:41:20.330Z,6.00
2019-04-20T01:45:29.285Z,12.37
2019-04-20T01:49:33.327Z,6.57
2019-04-20T01:54:03.990Z,9.97
2019-04-20T01:58:17.829Z,7.97
2019-04-20T02:02:27.497Z,6.63
2019-04-20T02:06:41.530Z,7.53
2019-04-20T02:10:47.045Z,12.57
2019-04-20T02:14:49.646Z,12.37
2019-04-20T02:19:06.584Z,7.50
2019-04-20T02:23:07.325Z,7.67
2019-04-20T02:27:01.916Z,6.50
2019-04-20T02:36:20.867Z,8.07
2019-04-20T02:40:15.418Z,8.90
2019-04-20T02:44:44.241Z,8.10
2019-04-20T02:52:42.139Z,8.70
2019-04-20T02:56:47.683Z,7.27
2019-04-20T03:00:38.260Z,6.93
2019-04-20T03:04:32.638Z,6.30
2019-04-20T03:08:52.692Z,7.23
2019-04-20T03:13:00.809Z,11.57
2019-04-20T03:17:03.243Z,7.43
2019-04-20T03:21:05.353Z,7.07
2019-04-20T03:25:19.808Z,6.47
2019-04-20T03:29:34.504Z,9.30
2019-04-20T03:37:51.110Z,11.50
2019-04-20T03:41:36.633Z,7.73
2019-04-20T03:45:44.690Z,6.97
2019-04-20T03:50:07.876Z,9.73
2019-04-20T03:54:13.183Z,5.67
2019-04-20T03:58:29.151Z,7.33
2019-04-20T04:03:10.036Z,9.53
2019-04-20T04:06:47.954Z,7.43
2019-04-20T04:11:10.885Z,8.63
2019-04-20T04:14:54.053Z,7.93
2019-04-20T04:19:05.920Z,9.13
2019-04-20T04:23:27.057Z,8.03
2019-04-20T04:27:32.674Z,7.50
2019-04-20T04:31:41.262Z,7.70
2019-04-20T04:35:32.366Z,9.57
2019-04-20T04:39:48.499Z,9.17
2019-04-20T04:43:53.867Z,8.33
2019-04-20T04:47:40.885Z,10.73
2019-04-20T04:51:54.453Z,6.37
2019-04-20T04:55:59.552Z,8.83
2019-04-20T04:59:57.343Z,8.10
2019-04-20T05:04:21.605Z,7.97
2019-04-20T05:08:16.005Z,8.30
2019-04-20T05:12:19.740Z,9.63
2019-04-20T05:16:43.805Z,7.70
2019-04-20T05:20:47.516Z,13.17
2019-04-20T05:24:59.690Z,7.73
2019-04-20T05:28:59.131Z,9.13
2019-04-20T05:33:01.467Z,11.50
2019-04-20T05:37:31.289Z,8.37
2019-04-20T05:41:21.599Z,9.10
2019-04-20T05:45:32.700Z,7.53
2019-04-20T05:49:35.050Z,9.40
2019-04-20T05:53:45.459Z,6.67
2019-04-20T05:57:51.080Z,6.00
2019-04-20T06:06:22.091Z,9.27
2019-04-20T06:10:31.817Z,8.53
2019-04-20T06:14:48.265Z,7.90
2019-04-20T06:19:06.384Z,6.63
2019-04-20T06:23:26.276Z,7.43
2019-04-20T06:27:36.564Z,8.97
2019-04-20T06:31:35.904Z,7.70
2019-04-20T06:36:00.955Z,6.63
2019-04-20T06:39:54.374Z,8.57
2019-04-20T06:44:00.660Z,10.00
2019-04-20T06:47:57.805Z,8.90
2019-04-20T06:52:25.696Z,6.97
2019-04-20T06:56:33.617Z,13.67
2019-04-20T07:00:36.881Z,8.03
2019-04-20T07:12:45.091Z,6.87
2019-04-20T07:16:59.729Z,6.57
2019-04-20T07:21:15.766Z,5.33
2019-04-20T07:25:18.945Z,9.80
2019-04-20T07:29:31.999Z,6.97
2019-04-20T07:33:32.218Z,5.10
2019-04-20T07:38:05.625Z,5.83
2019-04-20T07:41:55.619Z,6.50
2019-04-20T07:45:51.745Z,9.77
2019-04-20T07:49:55.388Z,5.50
2019-04-20T07:54:10.281Z,5.33
2019-04-20T07:58:03.993Z,13.73
2019-04-20T08:02:38.729Z,6.03
2019-04-20T08:06:32.158Z,6.47
2019-04-20T08:10:45.238Z,7.00
2019-04-20T08:15:04.914Z,5.53
2019-04-20T08:18:59.758Z,8.00
2019-04-20T08:23:11.285Z,6.43
2019-04-20T08:27:04.719Z,6.37
2019-04-20T08:31:40.678Z,7.40
2019-04-20T08:36:10.892Z,7.60
2019-04-20T08:40:13.132Z,5.47
2019-04-20T08:44:42.881Z,8.17
2019-04-20T08:48:30.963Z,6.97
2019-04-20T08:52:48.306Z,8.60
2019-04-20T08:56:30.466Z,6.43
2019-04-20T09:00:29.659Z,5.47
2019-04-20T09:04:39.676Z,7.87
2019-04-20T09:08:46.544Z,9.95
2019-04-20T09:12:53.137Z,5.80
2019-04-20T09:16:52.688Z,6.07
2019-04-20T09:20:58.479Z,5.97
2019-04-20T09:25:27.927Z,6.35
2019-04-20T09:29:12.742Z,8.55
2019-04-20T09:33:45.872Z,10.28
2019-04-20T09:37:55.769Z,9.70
2019-04-20T09:42:09.916Z,5.67
2019-04-20T09:46:15.704Z,7.15
2019-04-20T09:50:38.819Z,10.18
2019-04-20T09:54:48.299Z,4.80
2019-04-20T09:58:55.092Z,7.83
2019-04-20T10:02:39.356Z,8.08
2019-04-20T10:06:43.578Z,6.67
2019-04-20T10:10:49.437Z,8.23
2019-04-20T10:14:57.550Z,18.42
2019-04-20T10:19:00.706Z,6.67
2019-04-20T10:23:05.034Z,5.65
2019-04-20T10:27:10.444Z,6.55
2019-04-20T10:31:14.799Z,7.90
2019-04-20T10:35:18.976Z,5.65
2019-04-20T10:39:24.594Z,6.67
2019-04-20T10:43:30.112Z,6.92
2019-04-20T10:47:34.947Z,5.00
2019-04-20T10:51:39.929Z,5.53
2019-04-20T10:55:45.229Z,6.78
2019-04-20T10:59:49.821Z,6.33
2019-04-20T11:03:54.479Z,8.00
2019-04-20T11:07:58.916Z,5.22
2019-04-20T11:12:04.195Z,11.78
2019-04-20T11:16:08.561Z,7.80
2019-04-20T11:20:12.971Z,7.95
2019-04-20T11:24:18.319Z,9.40
2019-04-20T11:28:22.208Z,11.15
2019-04-20T11:32:26.277Z,8.33
2019-04-20T11:36:31.044Z,11.15
2019-04-20T11:40:35.395Z,7.08
2019-04-20T11:44:39.619Z,10.00
2019-04-20T11:48:43.926Z,9.10
2019-04-20T11:52:51.033Z,6.35
2019-04-20T11:56:55.361Z,7.55
2019-04-20T12:01:08.254Z,7.95
2019-04-20T12:05:23.968Z,5.90
2019-04-20T12:09:16.942Z,7.62
2019-04-20T12:13:22.386Z,8.23
2019-04-20T12:17:26.879Z,8.70
2019-04-20T12:21:31.126Z,7.78
2019-04-20T12:25:36.735Z,5.60
2019-04-20T12:29:41.328Z,6.42
2019-04-20T12:33:46.476Z,10.95
2019-04-20T12:37:51.334Z,12.05
2019-04-20T12:42:00.039Z,11.65
2019-04-20T12:46:02.250Z,13.45
2019-04-20T12:50:07.692Z,7.15
2019-04-20T12:54:11.935Z,6.97
2019-04-20T12:58:16.751Z,7.55
2019-04-20T13:02:21.030Z,7.67
2019-04-20T13:06:25.877Z,8.13
2019-04-20T13:10:31.624Z,10.03
2019-04-20T13:15:04.475Z,6.08
2019-04-20T13:19:09.076Z,8.00
2019-04-20T13:23:13.483Z,7.50
2019-04-20T13:27:18.738Z,10.28
2019-04-20T13:31:24.060Z,9.13
2019-04-20T13:35:30.121Z,11.03
2019-04-20T13:39:35.123Z,6.72
2019-04-20T13:43:39.754Z,8.23
2019-04-20T13:47:45.224Z,5.62
2019-04-20T13:51:50.845Z,6.83
2019-04-20T13:55:56.023Z,5.33
2019-04-20T14:00:02.122Z,7.60
2019-04-20T14:04:16.544Z,6.53
2019-04-20T14:08:27.292Z,8.15
2019-04-20T14:12:37.152Z,7.28
2019-04-20T14:16:38.923Z,6.25
2019-04-20T14:20:44.533Z,7.25
2019-04-20T14:24:48.965Z,8.43
2019-04-20T14:28:53.164Z,8.90
2019-04-20T14:32:58.851Z,5.08
2019-04-20T14:37:03.040Z,4.97
2019-04-20T14:41:08.477Z,5.42
2019-04-20T14:45:14.364Z,4.12
2019-04-20T14:49:18.879Z,7.50
2019-04-20T14:53:23.323Z,8.00
2019-04-20T14:57:27.681Z,7.58
2019-04-20T15:01:44.839Z,4.70
2019-04-20T15:05:49.346Z,6.05
2019-04-20T15:09:54.970Z,3.87
2019-04-20T15:14:00.638Z,3.22
2019-04-20T15:18:09.422Z,9.53
2019-04-20T15:22:29.830Z,4.45
2019-04-20T15:26:34.338Z,7.47
2019-04-20T15:30:38.627Z,3.02
2019-04-20T15:34:42.843Z,3.30
2019-04-20T15:38:47.279Z,3.92
2019-04-20T15:42:59.061Z,3.22
2019-04-20T15:46:57.440Z,2.33
2019-04-20T15:51:01.763Z,3.35
2019-04-20T15:55:14.172Z,4.45
2019-04-20T15:59:12.686Z,2.35
2019-04-20T16:03:21.421Z,2.98
2019-04-20T16:07:25.686Z,2.65
2019-04-20T16:11:30.952Z,2.60
2019-04-20T16:15:35.870Z,5.17
2019-04-20T16:19:50.631Z,2.72
2019-04-20T16:24:12.845Z,2.02
2019-04-20T16:28:17.406Z,13.93
2019-04-20T16:32:22.638Z,7.47
2019-04-20T16:36:28.143Z,4.33
2019-04-20T16:40:33.572Z,7.92
2019-04-20T16:44:38.934Z,10.68
2019-04-20T16:48:44.294Z,10.53
2019-04-20T16:52:48.854Z,9.08
2019-04-20T16:56:53.207Z,5.50
2019-04-20T17:00:57.423Z,4.85
2019-04-20T17:05:02.970Z,9.40
2019-04-20T17:09:09.432Z,17.15
2019-04-20T17:13:15.595Z,3.33
2019-04-20T17:17:20.306Z,5.75
2019-04-20T17:21:27.694Z,2.52
2019-04-20T17:25:30.460Z,5.67
2019-04-20T17:29:44.461Z,5.47
2019-04-20T17:34:11.470Z,4.40
2019-04-20T17:38:07.120Z,3.22
2019-04-20T17:42:26.447Z,3.40
2019-04-20T17:46:34.170Z,5.28
2019-04-20T17:50:39.582Z,5.97
2019-04-20T17:54:45.225Z,46.58
2019-04-20T17:58:50.259Z,23.07
2019-04-20T18:03:12.305Z,53.63
2019-04-20T18:07:26.990Z,8.58
2019-04-20T18:11:15.245Z,9.85
2019-04-20T18:15:35.910Z,22.77
2019-04-20T18:19:34.694Z,12.47
2019-04-20T18:23:43.446Z,7.10
2019-04-20T18:28:01.194Z,14.87
2019-04-20T18:32:09.781Z,18.47
2019-04-20T18:36:23.341Z,25.77
2019-04-20T18:40:29.133Z,24.83
2019-04-20T18:44:30.542Z,25.53
2019-04-20T18:48:50.593Z,15.10
2019-04-20T18:52:37.949Z,8.40
2019-04-20T18:56:47.361Z,14.47
2019-04-20T19:00:51.782Z,9.13
2019-04-20T19:04:56.982Z,10.87
2019-04-20T19:09:00.745Z,13.80
2019-04-20T19:13:11.430Z,11.03
2019-04-20T19:17:49.790Z,7.90
2019-04-20T19:21:42.167Z,7.20
2019-04-20T19:25:47.711Z,8.50
2019-04-20T19:30:01.162Z,8.00
2019-04-20T19:34:16.465Z,9.93
2019-04-20T19:38:12.591Z,11.77
2019-04-20T19:42:27.607Z,13.57
2019-04-20T19:46:44.183Z,13.23
2019-04-20T19:50:44.247Z,20.13
2019-04-20T19:54:49.327Z,42.23
2019-04-20T19:58:47.222Z,16.97
2019-04-20T20:02:39.606Z,18.47
2019-04-20T20:06:50.592Z,26.03
2019-04-20T20:10:50.604Z,20.10
2019-04-20T20:14:55.358Z,18.00
2019-04-20T20:19:08.511Z,21.30
2019-04-20T20:23:05.793Z,17.97
2019-04-20T20:27:22.890Z,16.63
2019-04-20T20:31:23.384Z,16.90
2019-04-20T20:35:27.383Z,17.80
2019-04-20T20:39:31.646Z,22.17
2019-04-20T20:43:53.613Z,19.43
2019-04-20T20:48:01.934Z,23.27
2019-04-20T20:52:06.763Z,65.70
2019-04-20T20:56:04.416Z,55.90
2019-04-20T21:00:05.306Z,33.97
2019-04-20T21:04:04.953Z,52.47
2019-04-20T21:08:09.219Z,23.30
2019-04-20T21:12:16.275Z,21.47
2019-04-20T21:16:25.053Z,20.77
2019-04-20T21:20:45.241Z,18.43
2019-04-20T21:24:35.816Z,58.03
2019-04-20T21:28:42.058Z,39.60
2019-04-20T21:32:49.150Z,34.40
2019-04-20T21:36:55.342Z,41.00
2019-04-20T21:41:05.091Z,54.33
2019-04-20T21:45:10.563Z,48.30
2019-04-20T21:49:26.361Z,90.53
2019-04-20T21:53:22.917Z,87.60
2019-04-20T21:57:24.199Z,71.13
2019-04-20T22:01:35.761Z,64.97
2019-04-20T22:05:34.680Z,44.47
2019-04-20T22:09:44.042Z,33.17
2019-04-20T22:13:47.642Z,42.07
2019-04-20T22:17:50.788Z,81.20
2019-04-20T22:22:07.754Z,38.80
2019-04-20T22:26:14.554Z,35.57
2019-04-20T22:30:12.167Z,27.07
2019-04-20T22:34:20.890Z,30.17
2019-04-20T22:38:26.787Z,40.63
2019-04-20T22:42:37.839Z,37.30
2019-04-20T22:46:40.133Z,38.90
2019-04-20T22:51:01.624Z,31.17
2019-04-20T22:55:12.619Z,31.20
2019-04-20T22:59:01.860Z,24.93
2019-04-20T23:03:00.854Z,27.50
2019-04-20T23:07:05.237Z,25.70
2019-04-20T23:11:16.837Z,23.83
2019-04-20T23:15:16.363Z,22.33
2019-04-20T23:19:33.901Z,24.63
2019-04-20T23:23:28.962Z,26.23
2019-04-20T23:27:35.134Z,20.37
2019-04-20T23:31:45.428Z,21.23
2019-04-20T23:35:51.935Z,21.33
2019-04-20T23:39:52.386Z,23.60
2019-04-20T23:44:21.011Z,23.07
2019-04-20T23:48:37.666Z,19.17
2019-04-20T23:53:02.460Z,22.03
2019-04-20T23:56:45.734Z,18.57
